createdAt,value
2019-01-24T00:00:58.124Z,1.00
2019-01-24T00:03:26.039Z,1.00
2019-01-24T00:05:54.452Z,1.07
2019-01-24T00:08:22.632Z,1.00
2019-01-24T00:10:51.059Z,1.07
2019-01-24T00:13:18.914Z,0.90
2019-01-24T00:15:47.148Z,1.00
2019-01-24T00:18:15.125Z,0.93
2019-01-24T00:20:43.054Z,1.00
2019-01-24T00:23:11.024Z,1.00
2019-01-24T00:25:38.954Z,1.00
2019-01-24T00:28:06.790Z,0.97
2019-01-24T00:30:34.916Z,1.00
2019-01-24T00:33:02.984Z,1.00
2019-01-24T00:35:31.295Z,0.90
2019-01-24T00:37:59.384Z,0.93
2019-01-24T00:40:27.450Z,1.00
2019-01-24T00:42:55.447Z,1.00
2019-01-24T00:45:23.563Z,0.80
2019-01-24T00:47:51.472Z,0.87
2019-01-24T00:50:19.728Z,0.70
2019-01-24T00:52:48.289Z,0.90
2019-01-24T00:55:16.686Z,0.90
2019-01-24T00:57:44.667Z,1.00
2019-01-24T01:00:18.091Z,1.00
2019-01-24T01:02:46.488Z,1.07
2019-01-24T01:05:14.686Z,1.00
2019-01-24T01:07:42.850Z,1.07
2019-01-24T01:10:11.799Z,1.07
2019-01-24T01:12:40.183Z,1.10
2019-01-24T01:15:10.995Z,0.90
2019-01-24T01:17:38.998Z,1.10
2019-01-24T01:20:09.472Z,1.20
2019-01-24T01:22:37.949Z,1.10
2019-01-24T01:25:08.445Z,1.20
2019-01-24T01:27:36.821Z,1.10
2019-01-24T01:30:06.853Z,1.70
2019-01-24T01:32:35.138Z,1.47
2019-01-24T01:35:03.438Z,1.50
2019-01-24T01:37:31.822Z,1.50
2019-01-24T01:39:59.853Z,1.20
2019-01-24T01:42:28.176Z,1.33
2019-01-24T01:44:56.451Z,1.20
2019-01-24T01:47:24.835Z,1.10
2019-01-24T01:49:53.339Z,1.00
2019-01-24T01:52:21.599Z,1.20
2019-01-24T01:54:49.698Z,1.10
2019-01-24T01:57:18.152Z,1.07
2019-01-24T01:59:46.286Z,1.00
2019-01-24T02:02:14.462Z,1.00
2019-01-24T02:04:43.041Z,1.10
2019-01-24T02:07:11.319Z,1.00
2019-01-24T02:09:39.592Z,1.10
2019-01-24T02:12:08.029Z,1.10
2019-01-24T02:14:36.464Z,1.00
2019-01-24T02:17:05.098Z,1.00
2019-01-24T02:19:33.418Z,1.00
2019-01-24T02:22:01.539Z,1.00
2019-01-24T02:24:29.833Z,1.00
2019-01-24T02:26:57.808Z,1.10
2019-01-24T02:29:25.686Z,1.10
2019-01-24T02:31:53.777Z,1.00
2019-01-24T02:34:22.127Z,1.10
2019-01-24T02:36:50.341Z,1.17
2019-01-24T02:39:18.551Z,1.07
2019-01-24T02:41:46.627Z,1.07
2019-01-24T02:44:14.574Z,1.10
2019-01-24T02:46:42.811Z,1.03
2019-01-24T02:49:10.860Z,1.10
2019-01-24T02:51:38.776Z,1.10
2019-01-24T02:54:07.110Z,1.10
2019-01-24T02:56:35.405Z,1.07
2019-01-24T02:59:04.115Z,0.83
2019-01-24T03:01:32.106Z,1.00
2019-01-24T03:04:00.561Z,1.10
2019-01-24T03:06:28.803Z,1.07
2019-01-24T03:08:56.747Z,0.93
2019-01-24T03:11:24.680Z,1.00
2019-01-24T03:13:53.133Z,1.00
2019-01-24T03:16:21.213Z,1.10
2019-01-24T03:18:49.134Z,0.80
2019-01-24T03:21:18.849Z,1.20
2019-01-24T03:23:47.266Z,1.00
2019-01-24T03:26:15.504Z,1.00
2019-01-24T03:28:43.436Z,1.00
2019-01-24T03:31:11.364Z,1.00
2019-01-24T03:33:39.585Z,1.00
2019-01-24T03:36:07.909Z,0.93
2019-01-24T03:38:36.192Z,1.00
2019-01-24T03:41:04.831Z,1.00
2019-01-24T03:43:33.315Z,1.00
2019-01-24T03:46:01.366Z,0.90
2019-01-24T03:48:48.645Z,0.90
2019-01-24T03:51:18.409Z,0.90
2019-01-24T03:53:46.360Z,1.00
2019-01-24T03:56:14.678Z,0.83
2019-01-24T03:58:42.851Z,1.00
2019-01-24T04:01:11.388Z,1.00
2019-01-24T04:03:39.833Z,1.00
2019-01-24T04:06:08.304Z,0.97
2019-01-24T04:08:36.567Z,1.00
2019-01-24T04:11:04.680Z,1.00
2019-01-24T04:13:32.718Z,1.10
2019-01-24T04:16:00.846Z,1.10
2019-01-24T04:18:29.196Z,1.00
2019-01-24T04:20:57.544Z,1.20
2019-01-24T04:23:25.795Z,1.20
2019-01-24T04:25:54.144Z,1.20
2019-01-24T04:28:22.129Z,1.10
2019-01-24T04:30:50.302Z,1.60
2019-01-24T04:33:18.717Z,1.60
2019-01-24T04:35:46.593Z,1.57
2019-01-24T04:38:14.625Z,1.60
2019-01-24T04:40:42.510Z,1.60
2019-01-24T04:43:10.945Z,1.73
2019-01-24T04:45:38.986Z,1.70
2019-01-24T04:48:06.948Z,2.00
2019-01-24T04:50:34.844Z,1.80
2019-01-24T04:53:02.931Z,2.00
2019-01-24T04:55:30.904Z,1.87
2019-01-24T04:57:58.890Z,1.80
2019-01-24T05:00:28.852Z,1.87
2019-01-24T05:02:56.782Z,1.90
2019-01-24T05:05:27.852Z,1.70
2019-01-24T05:07:54.870Z,1.90
2019-01-24T05:10:23.348Z,2.00
2019-01-24T05:12:51.373Z,2.00
2019-01-24T05:15:19.320Z,2.03
2019-01-24T05:17:47.229Z,2.03
2019-01-24T05:20:15.846Z,2.40
2019-01-24T05:22:43.957Z,2.40
2019-01-24T05:25:13.672Z,2.40
2019-01-24T05:27:41.760Z,2.10
2019-01-24T05:30:13.614Z,2.60
2019-01-24T05:32:41.719Z,2.77
2019-01-24T05:35:14.981Z,2.40
2019-01-24T05:37:43.092Z,2.40
2019-01-24T05:40:11.323Z,2.63
2019-01-24T05:42:39.603Z,2.50
2019-01-24T05:45:08.203Z,2.50
2019-01-24T05:47:36.142Z,2.90
2019-01-24T05:50:05.314Z,2.70
2019-01-24T05:52:33.292Z,2.60
2019-01-24T05:55:01.300Z,2.80
2019-01-24T05:57:29.680Z,2.70
2019-01-24T05:59:57.680Z,2.90
2019-01-24T06:02:25.831Z,2.83
2019-01-24T06:04:53.732Z,3.10
2019-01-24T06:07:21.715Z,3.60
2019-01-24T06:09:49.613Z,3.20
2019-01-24T06:12:17.532Z,3.40
2019-01-24T06:14:45.524Z,3.50
2019-01-24T06:17:13.656Z,3.50
2019-01-24T06:19:41.662Z,3.57
2019-01-24T06:22:09.601Z,3.60
2019-01-24T06:24:37.535Z,3.47
2019-01-24T06:27:05.430Z,3.73
2019-01-24T06:29:33.386Z,4.70
2019-01-24T06:32:01.769Z,4.10
2019-01-24T06:34:29.761Z,4.20
2019-01-24T06:36:58.009Z,4.83
2019-01-24T06:39:26.009Z,4.67
2019-01-24T06:41:53.832Z,4.63
2019-01-24T06:44:21.793Z,4.47
2019-01-24T06:46:49.721Z,6.57
2019-01-24T06:49:17.624Z,4.70
2019-01-24T06:51:45.613Z,4.93
2019-01-24T06:54:13.605Z,4.93
2019-01-24T06:56:41.548Z,4.77
2019-01-24T06:59:09.485Z,5.37
2019-01-24T07:01:37.759Z,5.47
2019-01-24T07:04:05.920Z,4.83
2019-01-24T07:06:34.132Z,4.93
2019-01-24T07:09:02.019Z,4.67
2019-01-24T07:11:29.974Z,4.90
2019-01-24T07:13:57.933Z,8.90
2019-01-24T07:16:25.833Z,13.10
2019-01-24T07:18:54.072Z,15.00
2019-01-24T07:21:22.059Z,8.63
2019-01-24T07:23:50.068Z,13.93
2019-01-24T07:26:19.277Z,7.33
2019-01-24T07:28:47.327Z,7.87
2019-01-24T07:31:15.261Z,6.10
2019-01-24T07:33:43.163Z,6.23
2019-01-24T07:36:11.415Z,7.13
2019-01-24T07:38:39.408Z,6.40
2019-01-24T07:41:07.440Z,6.60
2019-01-24T07:43:35.589Z,6.30
2019-01-24T07:46:04.451Z,6.20
2019-01-24T07:48:32.547Z,6.53
2019-01-24T07:51:00.537Z,6.47
2019-01-24T07:53:28.446Z,6.87
2019-01-24T07:55:56.522Z,6.57
2019-01-24T07:58:24.485Z,6.00
2019-01-24T08:00:52.825Z,6.90
2019-01-24T08:03:21.309Z,6.57
2019-01-24T08:05:49.297Z,7.23
2019-01-24T08:08:17.236Z,7.27
2019-01-24T08:10:45.336Z,6.90
2019-01-24T08:13:13.227Z,7.10
2019-01-24T08:15:41.224Z,7.23
2019-01-24T08:18:09.284Z,7.40
2019-01-24T08:20:37.213Z,7.83
2019-01-24T08:23:05.331Z,7.70
2019-01-24T08:25:33.417Z,8.20
2019-01-24T08:28:01.358Z,7.17
2019-01-24T08:30:31.304Z,7.83
2019-01-24T08:32:59.253Z,7.47
2019-01-24T08:35:27.355Z,7.87
2019-01-24T08:37:55.378Z,9.40
2019-01-24T08:40:23.561Z,8.50
2019-01-24T08:42:51.732Z,7.80
2019-01-24T08:45:19.996Z,7.80
2019-01-24T08:47:47.997Z,8.07
2019-01-24T08:50:17.411Z,8.67
2019-01-24T08:52:45.523Z,6.17
2019-01-24T08:55:25.202Z,6.47
2019-01-24T08:57:53.643Z,6.57
2019-01-24T09:00:21.725Z,8.00
2019-01-24T09:02:50.634Z,8.50
2019-01-24T09:05:19.098Z,9.50
2019-01-24T09:07:47.103Z,10.77
2019-01-24T09:10:18.671Z,10.00
2019-01-24T09:12:46.614Z,11.40
2019-01-24T09:15:14.853Z,10.30
2019-01-24T09:17:42.706Z,10.17
2019-01-24T09:20:12.410Z,11.87
2019-01-24T09:22:40.397Z,12.73
2019-01-24T09:25:08.905Z,11.20
2019-01-24T09:27:36.926Z,10.87
2019-01-24T09:30:06.709Z,10.23
2019-01-24T09:32:34.709Z,12.20
2019-01-24T09:35:03.067Z,11.93
2019-01-24T09:37:30.950Z,11.10
2019-01-24T09:39:58.861Z,10.23
2019-01-24T09:42:26.818Z,10.53
2019-01-24T09:44:54.884Z,10.83
2019-01-24T09:47:22.720Z,12.03
2019-01-24T09:49:50.776Z,10.67
2019-01-24T09:52:18.675Z,10.53
2019-01-24T09:54:46.856Z,11.10
2019-01-24T09:57:14.730Z,11.07
2019-01-24T09:59:42.806Z,10.90
2019-01-24T10:02:10.699Z,10.77
2019-01-24T10:04:38.812Z,11.23
2019-01-24T10:07:06.711Z,10.63
2019-01-24T10:09:34.794Z,10.30
2019-01-24T10:12:04.108Z,9.50
2019-01-24T10:14:54.954Z,10.27
2019-01-24T10:17:22.911Z,9.50
2019-01-24T10:19:50.892Z,10.07
2019-01-24T10:22:18.818Z,10.30
2019-01-24T10:24:46.788Z,10.07
2019-01-24T10:27:14.844Z,9.13
2019-01-24T10:29:42.780Z,9.97
2019-01-24T10:32:10.727Z,8.57
2019-01-24T10:34:38.768Z,8.57
2019-01-24T10:37:06.675Z,9.37
2019-01-24T10:39:34.608Z,8.97
2019-01-24T10:42:03.095Z,8.83
2019-01-24T10:44:32.613Z,8.70
2019-01-24T10:47:00.645Z,8.07
2019-01-24T10:49:28.688Z,11.77
2019-01-24T10:51:56.589Z,7.90
2019-01-24T10:54:24.703Z,8.40
2019-01-24T10:56:52.727Z,8.73
2019-01-24T10:59:20.642Z,7.30
2019-01-24T11:01:48.705Z,8.57
2019-01-24T11:04:16.801Z,12.70
2019-01-24T11:06:50.000Z,9.50
2019-01-24T11:09:15.145Z,7.57
2019-01-24T11:11:43.109Z,7.40
2019-01-24T11:14:25.660Z,8.03
2019-01-24T11:16:53.717Z,7.20
2019-01-24T11:19:21.634Z,6.97
2019-01-24T11:21:49.535Z,6.90
2019-01-24T11:24:17.447Z,6.30
2019-01-24T11:26:45.468Z,8.50
2019-01-24T11:29:13.326Z,7.30
2019-01-24T11:31:41.430Z,6.80
2019-01-24T11:34:09.492Z,6.27
2019-01-24T11:36:37.483Z,6.90
2019-01-24T11:39:07.001Z,6.93
2019-01-24T11:41:35.515Z,7.43
2019-01-24T11:44:03.529Z,6.67
2019-01-24T11:46:31.883Z,6.77
2019-01-24T11:48:59.774Z,5.80
2019-01-24T11:51:28.055Z,6.30
2019-01-24T11:53:55.961Z,6.63
2019-01-24T11:56:23.929Z,6.30
2019-01-24T11:58:51.842Z,6.30
2019-01-24T12:01:21.163Z,6.20
2019-01-24T12:03:49.060Z,6.30
2019-01-24T12:06:18.342Z,6.17
2019-01-24T12:08:46.353Z,5.93
2019-01-24T12:11:18.344Z,6.00
2019-01-24T12:13:46.364Z,5.83
2019-01-24T12:16:14.224Z,6.53
2019-01-24T12:18:42.154Z,6.43
2019-01-24T12:21:10.219Z,6.00
2019-01-24T12:23:38.143Z,6.13
2019-01-24T12:26:05.984Z,6.13
2019-01-24T12:28:33.996Z,5.90
2019-01-24T12:31:01.900Z,5.90
2019-01-24T12:33:29.881Z,6.07
2019-01-24T12:35:57.832Z,6.27
2019-01-24T12:38:25.809Z,5.53
2019-01-24T12:40:53.790Z,5.90
2019-01-24T12:43:22.263Z,5.47
2019-01-24T12:45:50.750Z,5.77
2019-01-24T12:48:18.676Z,5.80
2019-01-24T12:50:46.893Z,6.53
2019-01-24T12:53:15.337Z,5.60
2019-01-24T12:55:43.168Z,7.00
2019-01-24T12:58:11.196Z,6.13
2019-01-24T13:00:39.249Z,6.63
2019-01-24T13:03:07.392Z,6.73
2019-01-24T13:05:35.335Z,6.63
2019-01-24T13:08:03.614Z,6.20
2019-01-24T13:10:31.853Z,6.30
2019-01-24T13:12:59.765Z,6.30
2019-01-24T13:15:39.821Z,6.90
2019-01-24T13:18:08.300Z,6.17
2019-01-24T13:20:36.218Z,5.57
2019-01-24T13:23:04.509Z,6.10
2019-01-24T13:25:33.836Z,8.03
2019-01-24T13:28:01.794Z,6.97
2019-01-24T13:30:31.227Z,7.00
2019-01-24T13:33:00.226Z,7.57
2019-01-24T13:35:28.378Z,7.37
2019-01-24T13:37:56.355Z,6.20
2019-01-24T13:40:26.322Z,7.20
2019-01-24T13:42:54.479Z,7.17
2019-01-24T13:45:27.150Z,7.53
2019-01-24T13:47:55.476Z,7.23
2019-01-24T13:50:23.424Z,6.97
2019-01-24T13:52:51.803Z,6.20
2019-01-24T13:55:19.856Z,7.17
2019-01-24T13:57:48.173Z,7.30
2019-01-24T14:00:24.950Z,7.00
2019-01-24T14:03:14.391Z,6.67
2019-01-24T14:05:42.349Z,7.30
2019-01-24T14:08:10.288Z,6.80
2019-01-24T14:10:38.310Z,7.37
2019-01-24T14:13:06.301Z,7.07
2019-01-24T14:15:51.429Z,6.93
2019-01-24T14:18:19.792Z,6.93
2019-01-24T14:20:47.921Z,7.63
2019-01-24T14:23:15.806Z,7.43
2019-01-24T14:25:43.806Z,6.70
2019-01-24T14:28:11.722Z,6.70
2019-01-24T14:30:40.983Z,6.70
2019-01-24T14:33:08.933Z,6.57
2019-01-24T14:35:36.972Z,7.27
2019-01-24T14:38:06.110Z,7.23
2019-01-24T14:40:34.589Z,7.13
2019-01-24T14:43:02.486Z,6.20
2019-01-24T14:45:30.363Z,7.07
2019-01-24T14:47:58.326Z,7.10
2019-01-24T14:50:26.794Z,6.40
2019-01-24T14:52:55.206Z,6.87
2019-01-24T14:55:23.304Z,8.63
2019-01-24T14:57:51.366Z,7.50
2019-01-24T15:00:30.296Z,6.87
2019-01-24T15:02:58.321Z,6.73
2019-01-24T15:05:26.507Z,6.20
2019-01-24T15:07:54.492Z,6.13
2019-01-24T15:10:23.035Z,5.97
2019-01-24T15:12:51.213Z,6.30
2019-01-24T15:15:54.972Z,7.73
2019-01-24T15:18:21.885Z,6.97
2019-01-24T15:20:50.366Z,6.83
2019-01-24T15:23:18.417Z,7.07
2019-01-24T15:25:46.572Z,6.67
2019-01-24T15:28:14.453Z,6.20
2019-01-24T15:30:42.409Z,6.03
2019-01-24T15:33:10.331Z,6.60
2019-01-24T15:35:38.276Z,6.27
2019-01-24T15:38:06.308Z,7.03
2019-01-24T15:40:34.391Z,6.60
2019-01-24T15:43:02.743Z,6.57
2019-01-24T15:45:30.735Z,6.70
2019-01-24T15:47:59.023Z,7.40
2019-01-24T15:50:27.292Z,6.83
2019-01-24T15:52:55.335Z,6.77
2019-01-24T15:55:23.365Z,6.40
2019-01-24T15:57:51.308Z,5.67
2019-01-24T16:00:21.785Z,6.00
2019-01-24T16:02:49.833Z,5.83
2019-01-24T16:05:17.824Z,6.63
2019-01-24T16:07:46.379Z,5.83
2019-01-24T16:10:16.213Z,7.60
2019-01-24T16:12:44.129Z,6.83
2019-01-24T16:15:55.516Z,6.50
2019-01-24T16:18:21.908Z,7.40
2019-01-24T16:20:49.932Z,6.53
2019-01-24T16:23:17.779Z,6.77
2019-01-24T16:25:45.666Z,7.23
2019-01-24T16:28:13.785Z,5.80
2019-01-24T16:30:41.787Z,6.07
2019-01-24T16:33:09.641Z,5.43
2019-01-24T16:35:38.617Z,6.47
2019-01-24T16:38:09.635Z,6.70
2019-01-24T16:40:36.277Z,5.70
2019-01-24T16:43:05.029Z,6.37
2019-01-24T16:45:32.950Z,7.93
2019-01-24T16:48:01.035Z,7.50
2019-01-24T16:50:29.110Z,6.07
2019-01-24T16:52:57.531Z,5.67
2019-01-24T16:55:25.800Z,7.60
2019-01-24T16:57:54.169Z,6.43
2019-01-24T17:00:27.571Z,7.63
2019-01-24T17:02:55.597Z,12.77
2019-01-24T17:05:23.686Z,12.43
2019-01-24T17:07:51.916Z,9.07
2019-01-24T17:10:20.712Z,8.40
2019-01-24T17:12:48.794Z,7.63
2019-01-24T17:15:55.220Z,7.20
2019-01-24T17:18:21.676Z,8.47
2019-01-24T17:20:49.838Z,9.70
2019-01-24T17:23:17.956Z,9.43
2019-01-24T17:25:45.906Z,8.70
2019-01-24T17:28:13.811Z,9.07
2019-01-24T17:30:41.933Z,7.60
2019-01-24T17:33:10.313Z,7.07
2019-01-24T17:35:38.404Z,7.87
2019-01-24T17:38:06.434Z,8.63
2019-01-24T17:40:34.429Z,32.37
2019-01-24T17:43:02.623Z,11.97
2019-01-24T17:45:32.096Z,8.70
2019-01-24T17:48:00.349Z,11.33
2019-01-24T17:50:28.522Z,12.23
2019-01-24T17:52:56.622Z,11.00
2019-01-24T17:55:35.586Z,12.07
2019-01-24T17:58:53.936Z,16.13
2019-01-24T18:01:32.332Z,8.83
2019-01-24T18:04:54.917Z,10.43
2019-01-24T18:07:21.611Z,12.93
2019-01-24T18:09:49.653Z,13.07
2019-01-24T18:12:17.523Z,17.57
2019-01-24T18:15:14.767Z,9.60
2019-01-24T18:17:42.401Z,18.20
2019-01-24T18:20:18.242Z,13.87
2019-01-24T18:22:43.576Z,9.50
2019-01-24T18:25:11.862Z,13.20
2019-01-24T18:27:39.857Z,14.37
2019-01-24T18:30:11.716Z,23.30
2019-01-24T18:32:40.068Z,9.87
2019-01-24T18:35:08.796Z,8.03
2019-01-24T18:37:37.030Z,9.10
2019-01-24T18:40:06.150Z,9.13
2019-01-24T18:42:34.088Z,9.50
2019-01-24T18:45:02.110Z,8.60
2019-01-24T18:47:29.958Z,9.23
2019-01-24T18:49:58.116Z,8.53
2019-01-24T18:52:26.416Z,10.33
2019-01-24T18:54:54.381Z,10.60
2019-01-24T18:57:22.460Z,9.73
2019-01-24T18:59:50.347Z,10.73
2019-01-24T19:02:18.457Z,12.97
2019-01-24T19:04:46.572Z,11.60
2019-01-24T19:07:14.407Z,11.13
2019-01-24T19:09:42.297Z,8.77
2019-01-24T19:12:10.455Z,9.00
2019-01-24T19:15:11.002Z,8.70
2019-01-24T19:17:38.143Z,9.07
2019-01-24T19:20:10.814Z,8.77
2019-01-24T19:22:38.932Z,13.27
2019-01-24T19:25:08.312Z,8.73
2019-01-24T19:27:36.210Z,7.90
2019-01-24T19:30:07.235Z,8.30
2019-01-24T19:32:35.228Z,8.87
2019-01-24T19:35:03.500Z,14.20
2019-01-24T19:37:31.405Z,10.93
2019-01-24T19:39:59.388Z,10.83
2019-01-24T19:42:31.122Z,11.90
2019-01-24T19:44:59.314Z,8.17
2019-01-24T19:47:27.205Z,8.07
2019-01-24T19:49:55.133Z,9.80
2019-01-24T19:52:23.146Z,7.97
2019-01-24T19:54:51.240Z,9.00
2019-01-24T19:57:19.210Z,8.43
2019-01-24T19:59:47.116Z,8.33
2019-01-24T20:02:15.181Z,8.27
2019-01-24T20:04:43.096Z,8.77
2019-01-24T20:07:11.029Z,8.47
2019-01-24T20:09:38.904Z,8.07
2019-01-24T20:12:06.709Z,8.10
2019-01-24T20:15:01.655Z,8.70
2019-01-24T20:17:29.138Z,8.47
2019-01-24T20:19:57.079Z,8.27
2019-01-24T20:22:25.080Z,8.80
2019-01-24T20:24:52.997Z,8.13
2019-01-24T20:27:20.844Z,8.77
2019-01-24T20:29:48.852Z,8.83
2019-01-24T20:32:16.757Z,8.57
2019-01-24T20:34:44.747Z,8.20
2019-01-24T20:37:12.712Z,8.33
2019-01-24T20:39:40.697Z,7.97
2019-01-24T20:42:08.757Z,9.00
2019-01-24T20:44:36.673Z,8.90
2019-01-24T20:47:04.693Z,9.33
2019-01-24T20:49:32.948Z,9.73
2019-01-24T20:52:00.987Z,9.20
2019-01-24T20:54:28.866Z,9.80
2019-01-24T20:56:57.068Z,9.60
2019-01-24T20:59:24.998Z,9.50
2019-01-24T21:01:53.024Z,10.53
2019-01-24T21:04:21.034Z,10.07
2019-01-24T21:06:48.980Z,10.73
2019-01-24T21:09:16.878Z,12.53
2019-01-24T21:11:45.005Z,10.33
2019-01-24T21:14:29.842Z,10.03
2019-01-24T21:16:57.658Z,10.27
2019-01-24T21:19:25.722Z,10.73
2019-01-24T21:21:53.745Z,9.77
2019-01-24T21:24:21.716Z,10.00
2019-01-24T21:27:20.044Z,10.27
2019-01-24T21:29:47.328Z,10.47
2019-01-24T21:32:15.380Z,9.23
2019-01-24T21:34:43.463Z,9.77
2019-01-24T21:37:11.341Z,9.57
2019-01-24T21:39:39.295Z,9.17
2019-01-24T21:42:07.086Z,8.67
2019-01-24T21:44:35.067Z,10.10
2019-01-24T21:47:03.108Z,11.07
2019-01-24T21:49:31.095Z,11.80
2019-01-24T21:51:59.189Z,10.67
2019-01-24T21:54:27.066Z,10.63
2019-01-24T21:56:55.136Z,11.00
2019-01-24T21:59:23.059Z,10.80
2019-01-24T22:01:50.972Z,10.37
2019-01-24T22:04:19.025Z,10.17
2019-01-24T22:06:46.871Z,9.90
2019-01-24T22:09:14.888Z,11.03
2019-01-24T22:11:42.823Z,10.40
2019-01-24T22:14:26.471Z,11.50
2019-01-24T22:16:53.220Z,11.20
2019-01-24T22:19:21.258Z,12.23
2019-01-24T22:21:49.166Z,12.63
2019-01-24T22:24:17.075Z,12.53
2019-01-24T22:26:44.967Z,12.83
2019-01-24T22:29:12.941Z,12.43
2019-01-24T22:31:40.862Z,12.13
2019-01-24T22:34:08.812Z,12.47
2019-01-24T22:36:36.747Z,12.00
2019-01-24T22:39:08.133Z,14.27
2019-01-24T22:41:36.123Z,14.20
2019-01-24T22:44:04.681Z,13.40
2019-01-24T22:46:32.535Z,14.50
2019-01-24T22:49:00.480Z,14.77
2019-01-24T22:51:28.539Z,14.73
2019-01-24T22:53:56.374Z,12.90
2019-01-24T22:56:24.484Z,12.40
2019-01-24T22:58:52.417Z,12.50
2019-01-24T23:01:34.697Z,12.07
2019-01-24T23:04:09.761Z,12.63
2019-01-24T23:06:37.810Z,13.30
2019-01-24T23:09:08.641Z,12.83
2019-01-24T23:11:36.752Z,13.03
2019-01-24T23:14:05.164Z,12.20
2019-01-24T23:16:33.115Z,12.53
2019-01-24T23:19:01.115Z,12.40
2019-01-24T23:21:29.201Z,13.03
2019-01-24T23:23:57.222Z,12.80
2019-01-24T23:26:44.681Z,14.90
2019-01-24T23:29:13.016Z,13.87
2019-01-24T23:31:40.964Z,13.23
2019-01-24T23:34:09.004Z,13.53
2019-01-24T23:36:37.048Z,13.30
2019-01-24T23:39:08.776Z,14.93
2019-01-24T23:41:36.687Z,14.20
2019-01-24T23:44:04.812Z,15.43
2019-01-24T23:46:32.790Z,15.30
2019-01-24T23:49:00.640Z,14.30
2019-01-24T23:51:28.678Z,13.27
2019-01-24T23:53:56.729Z,14.93
2019-01-24T23:56:24.684Z,14.73
2019-01-24T23:58:52.670Z,13.37
